createdAt,value
2017-08-07T00:02:31.087Z,0
2017-08-07T00:12:45.824Z,0
2017-08-07T00:22:59.953Z,0
2017-08-07T00:33:15.286Z,0
2017-08-07T00:43:31.011Z,0
2017-08-07T00:53:45.140Z,0
2017-08-07T01:03:59.057Z,0
2017-08-07T01:14:14.008Z,0
2017-08-07T01:24:29.118Z,0
2017-08-07T01:34:43.810Z,0
2017-08-07T01:44:59.176Z,0
2017-08-07T01:55:14.762Z,0
2017-08-07T02:05:30.199Z,0
2017-08-07T02:15:44.238Z,0
2017-08-07T02:25:58.208Z,0
2017-08-07T02:36:13.794Z,0
2017-08-07T02:46:27.616Z,0
2017-08-07T02:56:41.384Z,0
2017-08-07T03:06:55.481Z,0
2017-08-07T03:17:11.046Z,0
2017-08-07T03:27:25.323Z,0
2017-08-07T03:37:40.903Z,0
2017-08-07T03:47:54.625Z,0
2017-08-07T03:58:10.114Z,5
2017-08-07T04:08:24.107Z,20
2017-08-07T04:18:39.694Z,35
2017-08-07T04:28:54.231Z,55
2017-08-07T04:39:09.591Z,70
2017-08-07T04:49:23.706Z,90
2017-08-07T04:59:38.900Z,110
2017-08-07T05:09:53.702Z,125
2017-08-07T05:20:08.866Z,145
2017-08-07T05:30:22.750Z,160
2017-08-07T05:40:38.402Z,175
2017-08-07T05:50:53.800Z,200
2017-08-07T06:01:09.323Z,205
2017-08-07T06:11:23.530Z,220
2017-08-07T06:21:37.717Z,260
2017-08-07T06:31:53.221Z,295
2017-08-07T06:42:08.023Z,395
2017-08-07T06:52:22.761Z,480
2017-08-07T07:02:37.405Z,570
2017-08-07T07:12:52.568Z,620
2017-08-07T07:23:06.507Z,1150
2017-08-07T07:33:21.725Z,1050
2017-08-07T07:43:35.844Z,710
2017-08-07T07:53:51.099Z,1170
2017-08-07T08:04:06.021Z,1305
2017-08-07T08:14:20.501Z,1400
2017-08-07T08:24:35.630Z,1490
2017-08-07T08:34:51.098Z,1440
2017-08-07T08:45:05.592Z,1555
2017-08-07T08:55:20.232Z,1490
2017-08-07T09:05:34.475Z,1605
2017-08-07T09:15:49.540Z,1655
2017-08-07T09:26:04.861Z,1695
2017-08-07T09:36:19.669Z,1750
2017-08-07T09:46:33.781Z,1815
2017-08-07T09:56:49.511Z,1790
2017-08-07T10:07:03.726Z,580
2017-08-07T10:17:19.179Z,1725
2017-08-07T10:27:34.746Z,1785
2017-08-07T10:37:49.875Z,1780
2017-08-07T10:48:04.798Z,1940
2017-08-07T10:58:18.780Z,1730
2017-08-07T11:08:32.886Z,2060
2017-08-07T11:18:47.553Z,2010
2017-08-07T11:29:01.754Z,795
2017-08-07T11:39:17.288Z,760
2017-08-07T11:49:31.711Z,2110
2017-08-07T11:59:47.554Z,1765
2017-08-07T12:10:02.791Z,1540
2017-08-07T12:20:17.452Z,1370
2017-08-07T12:30:31.907Z,1400
2017-08-07T12:40:45.948Z,1605
2017-08-07T12:51:00.561Z,885
2017-08-07T13:01:15.322Z,855
2017-08-07T13:11:29.685Z,765
2017-08-07T13:21:44.184Z,2355
2017-08-07T13:31:59.892Z,1730
2017-08-07T13:42:14.511Z,735
2017-08-07T13:52:29.239Z,1850
2017-08-07T14:02:44.287Z,750
2017-08-07T14:12:59.268Z,1745
2017-08-07T14:23:14.393Z,1925
2017-08-07T14:33:29.913Z,1505
2017-08-07T14:43:44.500Z,1760
2017-08-07T14:53:59.966Z,1235
2017-08-07T15:04:14.365Z,1035
2017-08-07T15:14:28.734Z,1445
2017-08-07T15:24:42.940Z,1285
2017-08-07T15:34:57.484Z,1090
2017-08-07T15:45:12.354Z,1125
2017-08-07T15:55:26.777Z,1150
2017-08-07T16:05:42.547Z,1085
2017-08-07T16:15:57.663Z,510
2017-08-07T16:26:13.110Z,675
2017-08-07T16:36:27.277Z,680
2017-08-07T16:46:41.740Z,640
2017-08-07T16:56:57.012Z,655
2017-08-07T17:07:11.869Z,455
2017-08-07T17:17:25.808Z,320
2017-08-07T17:27:41.516Z,310
2017-08-07T17:37:55.368Z,325
2017-08-07T17:48:09.249Z,305
2017-08-07T17:58:24.469Z,215
2017-08-07T18:08:39.084Z,170
2017-08-07T18:18:54.575Z,130
2017-08-07T18:29:08.953Z,100
2017-08-07T18:39:24.283Z,70
2017-08-07T18:49:39.212Z,45
2017-08-07T18:59:53.416Z,20
2017-08-07T19:10:08.335Z,10
2017-08-07T19:20:23.851Z,0
2017-08-07T19:30:39.161Z,0
2017-08-07T19:40:53.394Z,0
2017-08-07T19:51:07.240Z,0
2017-08-07T20:01:21.233Z,0
2017-08-07T20:11:35.594Z,0
2017-08-07T20:21:50.279Z,0
2017-08-07T20:32:04.680Z,0
2017-08-07T20:42:20.229Z,0
2017-08-07T20:52:35.562Z,0
2017-08-07T21:02:50.459Z,0
2017-08-07T21:13:05.348Z,0
2017-08-07T21:23:20.898Z,0
2017-08-07T21:33:36.657Z,0
2017-08-07T21:43:52.170Z,0
2017-08-07T21:54:07.393Z,0
2017-08-07T22:04:22.180Z,0
2017-08-07T22:14:36.240Z,0
2017-08-07T22:24:50.840Z,0
2017-08-07T22:35:05.515Z,0
2017-08-07T22:45:21.077Z,0
2017-08-07T22:55:36.255Z,0
2017-08-07T23:05:51.257Z,0
2017-08-07T23:16:06.982Z,0
2017-08-07T23:26:22.504Z,0
2017-08-07T23:36:36.707Z,0
2017-08-07T23:46:51.314Z,0
2017-08-07T23:57:06.149Z,0
